Jacobsdal, South Africa
Current Conditions -  °F | °C
As of 8:00 AM on Wednesday 26 Nov 2014 (Local Time) from FABL Reporting Station
Clear Clear  
Wind Chill: 68°   Ceiling: Unl
Heat Index: 68°   Visibility: 6mi
Dew Point: 54°   Wind: 15mph
Humidity: 60%   Direction: 30°NNE
Pressure: 30.15"   Gusts: NA
Location:  29.13°S, 24.77°E
Report Text: FABL 260600Z 03013KT CAVOK 20/12 Q1021 NOSIG
Loading
Personal Weather Stations






























Interactive Weather Map New forecast layout! Learn more

10-Day Weather Forecast

Advertisements
Track Severe Weather on mobile